Time;durP1;ratioP1;P1;durP2;ratioP2;P2;SDS_P1;SDS_P2;PMS_P1;PMS_P2;Temp;Humidity;BMP_temperature;BMP_pressure;BME280_temperature;BME280_humidity;BME280_pressure;Samples;Min_cycle;Max_cycle;Signal;HPM_P1;HPM_P2
2021/12/18 00:01:11;;;;;;;23.05;8.10;;;;;;;-0.72;100.00;95262.19;5087361;28;20113;-71
2021/12/18 00:03:38;;;;;;;13.02;6.40;;;;;;;-0.67;100.00;95262.50;5095127;28;20048;-71
2021/12/18 00:06:05;;;;;;;13.00;7.07;;;;;;;-0.65;100.00;95257.25;5089916;28;20044;-71
2021/12/18 00:08:32;;;;;;;13.02;6.38;;;;;;;-0.70;100.00;95250.03;5091618;28;20524;-72
2021/12/18 00:10:59;;;;;;;18.02;7.25;;;;;;;-0.62;100.00;95256.94;5082978;28;20045;-73
2021/12/18 00:13:26;;;;;;;19.23;7.80;;;;;;;-0.80;100.00;95241.66;5090232;28;20032;-71
2021/12/18 00:15:53;;;;;;;13.15;5.35;;;;;;;-0.72;100.00;95246.84;5087473;28;20565;-72
2021/12/18 00:18:20;;;;;;;12.10;6.25;;;;;;;-0.80;100.00;95239.09;5088066;28;20523;-72
2021/12/18 00:20:48;;;;;;;13.98;6.05;;;;;;;-0.68;100.00;95250.69;5089372;28;20044;-71
2021/12/18 00:23:15;;;;;;;12.70;6.38;;;;;;;-0.55;100.00;95262.28;5092962;28;20382;-74
2021/12/18 00:25:42;;;;;;;13.32;4.63;;;;;;;-0.62;100.00;95259.50;5087047;28;20071;-74
2021/12/18 00:28:10;;;;;;;12.82;5.72;;;;;;;-0.66;100.00;95256.44;5090896;28;20052;-72
2021/12/18 00:30:38;;;;;;;9.30;4.95;;;;;;;-0.58;100.00;95263.38;5092930;28;20529;-72
2021/12/18 00:33:06;;;;;;;6.57;4.32;;;;;;;-0.46;100.00;95267.28;5085637;28;20040;-72
2021/12/18 00:35:33;;;;;;;14.63;6.97;;;;;;;-0.44;100.00;95274.81;5094785;28;20064;-72
2021/12/18 00:38:03;;;;;;;9.60;4.93;;;;;;;-0.55;100.00;95262.28;5095174;28;20051;-72
2021/12/18 00:40:43;;;;;;;11.38;5.63;;;;;;;-0.62;100.00;95262.88;5097595;28;20040;-72
2021/12/18 00:43:31;;;;;;;12.52;4.75;;;;;;;-0.61;100.00;95277.28;5094275;28;20401;-72
2021/12/18 00:45:59;;;;;;;13.50;6.03;;;;;;;-0.61;100.00;95269.59;5088795;28;20044;-72
2021/12/18 00:48:27;;;;;;;8.02;3.75;;;;;;;-0.57;100.00;95274.41;5095853;28;20527;-71
2021/12/18 00:50:54;;;;;;;5.07;3.42;;;;;;;-0.66;100.00;95276.91;5096499;28;20040;-71
2021/12/18 00:53:21;;;;;;;7.22;3.47;;;;;;;-0.63;100.00;95276.63;5099383;28;20413;-71
2021/12/18 00:55:51;;;;;;;9.13;4.40;;;;;;;-0.53;100.00;95285.94;5098691;28;20047;-71
2021/12/18 00:58:18;;;;;;;7.47;3.67;;;;;;;-0.55;100.00;95280.19;5102274;28;20046;-72
2021/12/18 01:00:46;;;;;;;6.45;3.47;;;;;;;-0.59;100.00;95266.91;5101839;28;20031;-71
2021/12/18 01:03:19;;;;;;;8.55;4.00;;;;;;;-0.52;100.00;95272.19;5107924;27;20036;-71
2021/12/18 01:05:47;;;;;;;6.47;3.40;;;;;;;-0.52;100.00;95279.88;5092562;28;20035;-72
2021/12/18 01:08:14;;;;;;;3.88;2.42;;;;;;;-0.46;100.00;95286.97;5092286;28;20054;-72
2021/12/18 01:11:10;;;;;;;7.05;3.28;;;;;;;-0.36;100.00;95285.09;5092331;28;20044;-71
2021/12/18 01:13:45;;;;;;;5.32;2.85;;;;;;;-0.40;100.00;95271.81;5087604;28;20059;-71
2021/12/18 01:16:19;;;;;;;7.50;3.22;;;;;;;-0.33;100.00;95277.09;5095024;28;20516;-71
2021/12/18 01:24:17;;;;;;;11.63;4.70;;;;;;;-0.03;100.00;95282.69;5096880;28;20031;-74
2021/12/18 01:26:44;;;;;;;15.23;5.32;;;;;;;-0.07;100.00;95281.41;5091914;28;20039;-71
2021/12/18 01:29:11;;;;;;;13.15;4.70;;;;;;;-0.17;100.00;95276.38;5094871;28;20048;-72
2021/12/18 01:31:38;;;;;;;13.07;5.25;;;;;;;-0.24;100.00;95271.06;5102452;28;20495;-71
2021/12/18 01:34:05;;;;;;;8.77;4.78;;;;;;;-0.28;100.00;95268.97;5091799;28;20040;-72
2021/12/18 01:36:32;;;;;;;14.90;7.13;;;;;;;-0.31;100.00;95264.94;5095930;28;20043;-72
2021/12/18 01:39:00;;;;;;;12.15;6.90;;;;;;;-0.12;100.00;95273.38;5096191;28;20123;-71
2021/12/18 01:41:34;;;;;;;14.23;6.88;;;;;;;-0.14;100.00;95272.72;5092205;28;20405;-74
2021/12/18 01:47:01;;;;;;;16.55;7.72;;;;;;;-0.14;100.00;95270.16;5088882;28;20044;-72
2021/12/18 01:52:34;;;;;;;17.23;8.23;;;;;;;-0.22;100.00;95269.19;5042923;28;20494;-72
2021/12/18 01:55:01;;;;;;;19.70;8.45;;;;;;;-0.31;100.00;95264.94;5042724;28;20049;-72
2021/12/18 01:57:28;;;;;;;14.52;7.53;;;;;;;-0.24;100.00;95265.94;5066834;28;20047;-72
2021/12/18 01:59:55;;;;;;;16.85;8.52;;;;;;;-0.31;100.00;95254.72;5099841;28;20051;-72
2021/12/18 02:02:22;;;;;;;18.48;8.48;;;;;;;-0.37;100.00;95242.53;5101094;28;20039;-72
2021/12/18 02:04:49;;;;;;;13.32;6.68;;;;;;;-0.26;100.00;95262.72;5101222;28;20032;-71
2021/12/18 02:07:17;;;;;;;17.98;6.03;;;;;;;-0.35;100.00;95253.41;5096407;28;20040;-72
2021/12/18 02:10:03;;;;;;;14.65;5.85;;;;;;;-0.35;100.00;95261.09;5089556;28;20035;-71
2021/12/18 02:20:50;;;;;;;11.02;5.53;;;;;;;-0.41;100.00;95259.16;5090590;28;20410;-71
2021/12/18 02:23:17;;;;;;;10.18;5.43;;;;;;;-0.53;100.00;95245.00;5101826;28;20028;-72
2021/12/18 02:25:46;;;;;;;12.27;5.78;;;;;;;-0.43;100.00;95266.19;5089842;28;20036;-71
2021/12/18 02:28:20;;;;;;;10.45;5.20;;;;;;;-0.49;100.00;95256.53;5091540;28;20051;-71
2021/12/18 02:30:49;;;;;;;12.13;5.68;;;;;;;-0.59;100.00;95254.91;5097396;28;20386;-71
2021/12/18 02:33:16;;;;;;;12.48;5.28;;;;;;;-0.54;100.00;95258.75;5093085;28;20069;-71
2021/12/18 02:35:50;;;;;;;16.50;6.32;;;;;;;-0.73;100.00;95257.22;5089760;28;20043;-71
2021/12/18 02:38:30;;;;;;;11.87;6.13;;;;;;;-0.76;100.00;95265.97;5093267;28;20042;-72
2021/12/18 02:43:34;;;;;;;11.05;6.30;;;;;;;-0.81;100.00;95268.16;5079890;28;20036;-72
2021/12/18 02:46:06;;;;;;;19.48;7.25;;;;;;;-0.81;100.00;95263.06;5080583;28;20109;-71
2021/12/18 02:48:40;;;;;;;15.73;8.07;;;;;;;-0.83;100.00;95264.97;5069780;28;20049;-71
2021/12/18 02:51:10;;;;;;;16.00;9.48;;;;;;;-0.84;100.00;95268.50;5103385;28;20504;-72
2021/12/18 02:53:40;;;;;;;10.40;6.28;;;;;;;-0.80;100.00;95264.69;5100280;28;20393;-72
2021/12/18 02:56:10;;;;;;;11.57;6.85;;;;;;;-0.83;100.00;95276.03;5087704;28;20050;-72
2021/12/18 02:58:38;;;;;;;14.75;7.50;;;;;;;-0.85;100.00;95272.00;5091102;28;20051;-72
2021/12/18 03:01:09;;;;;;;56.72;16.23;;;;;;;-0.91;100.00;95263.16;5092827;28;20504;-71
2021/12/18 03:03:39;;;;;;;15.23;9.38;;;;;;;-0.85;100.00;95277.09;5096683;28;20044;-71
2021/12/18 03:09:37;;;;;;;;;;;;;;;-1.01;100.00;95267.56;5043696;28;20431;-72
2021/12/18 03:19:07;;;;;;;12.70;6.57;;;;;;;-1.08;100.00;95257.13;5097674;28;20044;-71
2021/12/18 03:25:31;;;;;;;13.52;6.40;;;;;;;-0.87;100.00;95268.78;5096070;28;20050;-72
2021/12/18 03:28:00;;;;;;;10.60;6.00;;;;;;;-0.92;100.00;95276.09;5086271;28;20082;-71
2021/12/18 03:30:27;;;;;;;12.35;5.32;;;;;;;-0.93;100.00;95279.63;5099653;28;20535;-72
2021/12/18 03:32:55;;;;;;;9.27;5.40;;;;;;;-0.97;100.00;95274.78;5096723;28;20528;-72
2021/12/18 03:35:22;;;;;;;9.73;5.65;;;;;;;-1.02;100.00;95279.53;5084441;28;20044;-71
2021/12/18 03:37:49;;;;;;;9.50;5.28;;;;;;;-1.13;100.00;95261.88;5087840;28;20056;-72
2021/12/18 03:40:19;;;;;;;15.25;7.38;;;;;;;-1.15;100.00;95281.69;5087713;28;20063;-72
2021/12/18 03:42:47;;;;;;;10.82;6.70;;;;;;;-1.18;100.00;95266.63;5087432;28;20044;-72
2021/12/18 03:45:16;;;;;;;14.30;7.28;;;;;;;-1.14;100.00;95293.50;5093528;28;20413;-72
2021/12/18 03:47:44;;;;;;;16.45;7.63;;;;;;;-1.20;100.00;95288.97;5092161;28;20063;-73
2021/12/18 03:50:11;;;;;;;13.85;7.22;;;;;;;-1.24;100.00;95292.75;5104967;28;20115;-72
2021/12/18 03:52:38;;;;;;;11.15;6.68;;;;;;;-1.30;100.00;95283.13;5092114;28;20036;-73
2021/12/18 03:55:06;;;;;;;18.42;8.60;;;;;;;-1.16;100.00;95310.75;5093221;28;20044;-72
2021/12/18 03:57:33;;;;;;;12.45;6.18;;;;;;;-1.18;100.00;95302.41;5097904;28;20523;-72
2021/12/18 04:00:00;;;;;;;14.88;7.68;;;;;;;-1.02;100.00;95322.22;5103209;28;20069;-72
2021/12/18 04:02:38;;;;;;;17.00;6.85;;;;;;;-1.10;100.00;95304.22;5107994;28;20050;-72
2021/12/18 04:05:06;;;;;;;12.95;7.38;;;;;;;-1.18;100.00;95302.41;5099181;28;20543;-72
2021/12/18 04:07:42;;;;;;;13.73;7.43;;;;;;;-1.21;100.00;95297.59;5097408;28;20051;-72
2021/12/18 04:10:10;;;;;;;12.60;7.10;;;;;;;-1.17;100.00;95319.34;5092236;28;20445;-73
2021/12/18 04:12:38;;;;;;;11.98;6.95;;;;;;;-1.28;100.00;95296.56;5093616;28;20032;-73
2021/12/18 04:15:05;;;;;;;13.27;7.78;;;;;;;-1.19;100.00;95305.91;5096460;28;20036;-73
2021/12/18 04:17:32;;;;;;;16.58;8.48;;;;;;;-1.19;100.00;95305.91;5094902;28;20405;-73
2021/12/18 04:20:00;;;;;;;27.08;7.30;;;;;;;-1.12;100.00;95306.94;5094795;28;20497;-73
2021/12/18 04:22:26;;;;;;;17.05;7.07;;;;;;;-0.98;100.00;95321.75;5091999;28;20035;-73
2021/12/18 04:24:53;;;;;;;15.63;7.85;;;;;;;-1.04;100.00;95317.25;5094440;28;20042;-73
2021/12/18 04:27:20;;;;;;;12.85;7.03;;;;;;;-1.03;100.00;95326.50;5097234;28;20040;-72
2021/12/18 04:29:47;;;;;;;12.77;8.07;;;;;;;-1.01;100.00;95313.56;5096714;28;20469;-72
2021/12/18 04:32:14;;;;;;;13.38;7.03;;;;;;;-0.94;100.00;95329.13;5097566;28;20517;-72
2021/12/18 04:34:41;;;;;;;19.50;10.18;;;;;;;-0.99;100.00;95317.59;5101282;28;20044;-73
2021/12/18 04:37:08;;;;;;;23.17;10.93;;;;;;;-0.93;100.00;95315.41;5099226;28;20044;-73
2021/12/18 04:39:35;;;;;;;22.05;10.55;;;;;;;-0.90;100.00;95327.88;5102260;28;20044;-73
2021/12/18 04:42:02;;;;;;;18.02;8.90;;;;;;;-1.00;100.00;95305.75;5107934;27;20044;-73
2021/12/18 04:44:29;;;;;;;13.20;7.65;;;;;;;-0.97;100.00;95336.16;5104473;28;20043;-72
2021/12/18 04:46:55;;;;;;;14.85;6.60;;;;;;;-1.26;100.00;95325.34;5099712;28;20520;-73
2021/12/18 04:49:22;;;;;;;15.52;7.32;;;;;;;-1.32;100.00;95324.16;5099363;28;20512;-73
2021/12/18 04:51:49;;;;;;;11.38;5.72;;;;;;;-1.26;100.00;95340.66;5104773;28;20604;-73
2021/12/18 04:54:16;;;;;;;11.75;5.97;;;;;;;-1.31;100.00;95343.69;5096018;28;20042;-73
2021/12/18 04:56:43;;;;;;;16.95;6.80;;;;;;;-1.35;100.00;95343.16;5092053;28;20066;-73
2021/12/18 04:59:11;;;;;;;9.48;5.70;;;;;;;-1.40;100.00;95335.13;5106245;28;20428;-73
2021/12/18 05:01:40;;;;;;;15.35;8.60;;;;;;;-1.33;100.00;95347.31;5075805;28;20440;-73
2021/12/18 05:04:10;;;;;;;13.07;7.47;;;;;;;-1.37;100.00;95355.28;5101107;28;20096;-72
2021/12/18 05:06:41;;;;;;;12.63;7.60;;;;;;;-1.25;100.00;95355.06;5085665;28;20044;-73
2021/12/18 05:09:08;;;;;;;20.27;8.73;;;;;;;-1.28;100.00;95352.78;5088858;28;20064;-73
2021/12/18 05:11:39;;;;;;;20.95;8.27;;;;;;;-1.15;100.00;95363.47;5090560;28;20390;-73
2021/12/18 05:14:06;;;;;;;16.15;7.85;;;;;;;-1.44;100.00;95344.03;5094292;28;20039;-73
2021/12/18 05:16:33;;;;;;;19.52;10.00;;;;;;;-1.35;100.00;95358.50;5090385;28;20784;-72
2021/12/18 05:19:01;;;;;;;16.85;7.55;;;;;;;-1.45;100.00;95360.28;5098945;28;20811;-72
2021/12/18 05:21:28;;;;;;;14.70;7.00;;;;;;;-1.43;100.00;95381.38;5097772;28;20074;-73
2021/12/18 05:23:54;;;;;;;15.35;7.50;;;;;;;-1.36;100.00;95372.19;5097427;28;20036;-72
2021/12/18 05:26:22;;;;;;;14.13;8.13;;;;;;;-1.33;100.00;95380.53;5096325;28;20043;-73
2021/12/18 05:28:49;;;;;;;15.55;8.52;;;;;;;-1.52;100.00;95377.13;5091515;28;20036;-72
2021/12/18 05:31:17;;;;;;;13.25;7.80;;;;;;;-1.50;100.00;95382.13;5081201;28;20043;-72
2021/12/18 05:33:46;;;;;;;18.20;8.85;;;;;;;-1.47;100.00;95394.63;5091087;28;20039;-72
2021/12/18 05:39:08;;;;;;;23.17;12.45;;;;;;;-1.39;100.00;95408.28;5105927;28;20401;-72
2021/12/18 05:41:36;;;;;;;13.25;5.63;;;;;;;-1.60;100.00;95384.72;5080079;28;20116;-72
2021/12/18 05:44:04;;;;;;;15.73;6.97;;;;;;;-1.50;100.00;95413.56;5096002;28;20036;-73
2021/12/18 05:46:31;;;;;;;18.67;8.07;;;;;;;-1.48;100.00;95398.91;5090296;28;20062;-73
2021/12/18 05:48:58;;;;;;;18.70;10.52;;;;;;;-1.36;100.00;95407.97;5083681;28;20039;-72
2021/12/18 05:51:25;;;;;;;24.73;11.27;;;;;;;-1.40;100.00;95406.66;5085039;28;20199;-73
2021/12/18 05:53:52;;;;;;;17.48;8.32;;;;;;;-1.29;100.00;95409.97;5090089;28;20042;-72
2021/12/18 05:56:20;;;;;;;25.02;10.10;;;;;;;-1.22;100.00;95413.56;5103087;28;20046;-73
2021/12/18 05:58:47;;;;;;;18.45;9.02;;;;;;;-1.23;100.00;95414.50;5106064;28;20062;-72
2021/12/18 06:01:14;;;;;;;22.65;10.57;;;;;;;-1.14;100.00;95415.41;5085842;28;20052;-73
2021/12/18 06:11:54;;;;;;;15.30;7.85;;;;;;;-1.52;100.00;95420.56;5089995;27;20133;-73
2021/12/18 06:14:21;;;;;;;34.92;13.93;;;;;;;-1.42;100.00;95429.00;5105669;28;20503;-72
2021/12/18 06:16:48;;;;;;;24.10;11.40;;;;;;;-1.40;100.00;95442.44;5104060;28;20429;-73
2021/12/18 06:19:15;;;;;;;17.42;11.00;;;;;;;-1.54;100.00;95397.72;5101265;28;20052;-73
2021/12/18 06:21:42;;;;;;;19.13;8.98;;;;;;;-1.34;100.00;95430.84;5101305;28;20037;-73
2021/12/18 06:24:09;;;;;;;30.30;12.48;;;;;;;-1.21;100.00;95450.94;5084229;28;20048;-72
2021/12/18 06:26:36;;;;;;;20.88;10.68;;;;;;;-1.21;100.00;95445.84;5102333;28;20573;-73
2021/12/18 06:29:03;;;;;;;26.95;10.18;;;;;;;-1.29;100.00;95432.97;5103419;28;20040;-73
2021/12/18 06:31:31;;;;;;;34.60;13.32;;;;;;;-1.27;100.00;95452.31;5102590;28;20036;-73
2021/12/18 06:33:58;;;;;;;18.98;11.68;;;;;;;-1.19;100.00;95456.72;5103315;28;20493;-73
2021/12/18 06:36:26;;;;;;;26.45;13.38;;;;;;;-1.22;100.00;95450.16;5099032;28;20044;-73
2021/12/18 06:38:53;;;;;;;28.20;13.32;;;;;;;-1.28;100.00;95455.03;5107263;28;20040;-73
2021/12/18 06:41:20;;;;;;;23.80;12.82;;;;;;;-1.30;100.00;95447.50;5105684;28;20502;-73
2021/12/18 06:43:47;;;;;;;26.27;14.25;;;;;;;-1.14;100.00;95461.41;5102889;28;20133;-73
2021/12/18 06:46:14;;;;;;;26.27;10.43;;;;;;;-1.16;100.00;95459.00;5100919;28;20051;-73
2021/12/18 06:48:41;;;;;;;29.73;12.40;;;;;;;-1.22;100.00;95462.13;5102045;28;20657;-73
2021/12/18 06:51:08;;;;;;;19.58;8.65;;;;;;;-1.24;100.00;95466.56;5102743;28;20733;-73
2021/12/18 06:53:35;;;;;;;20.52;9.85;;;;;;;-1.32;100.00;95474.16;5100590;28;20031;-73
2021/12/18 07:03:08;;;;;;;25.00;11.57;;;;;;;-1.49;100.00;95452.72;5043786;27;20608;-73
2021/12/18 07:05:35;;;;;;;30.30;13.82;;;;;;;-1.41;100.00;95470.69;5061202;28;20076;-74
2021/12/18 07:08:02;;;;;;;24.48;13.57;;;;;;;-1.26;100.00;95481.25;5054257;28;20060;-73
2021/12/18 07:10:31;;;;;;;23.42;12.57;;;;;;;-1.16;100.00;95487.13;5055465;28;20453;-73
2021/12/18 07:12:58;;;;;;;31.77;10.38;;;;;;;-1.10;100.00;95489.09;5058416;28;20057;-73
2021/12/18 07:15:25;;;;;;;18.10;9.38;;;;;;;-1.08;100.00;95477.00;5064198;28;20049;-73
2021/12/18 07:17:52;;;;;;;19.05;9.23;;;;;;;-0.84;100.00;95488.44;5062855;28;20514;-74
2021/12/18 07:20:19;;;;;;;18.77;11.13;;;;;;;-0.91;100.00;95477.97;5057141;28;20049;-73
2021/12/18 07:22:46;;;;;;;16.48;9.65;;;;;;;-0.91;100.00;95477.19;5059375;28;20056;-73
2021/12/18 07:25:13;;;;;;;12.35;7.95;;;;;;;-0.79;100.00;95502.41;5057435;28;20446;-74
2021/12/18 07:27:40;;;;;;;19.58;9.27;;;;;;;-0.79;100.00;95496.50;5061767;28;20065;-73
2021/12/18 07:30:08;;;;;;;18.70;9.60;;;;;;;-0.88;100.00;95487.09;5061977;28;20129;-75
2021/12/18 07:32:35;;;;;;;15.88;8.07;;;;;;;-0.91;100.00;95487.41;5057009;28;20072;-74
2021/12/18 07:35:02;;;;;;;14.82;7.78;;;;;;;-0.77;100.00;95510.72;5063010;28;20506;-74
2021/12/18 07:37:29;;;;;;;21.50;8.52;;;;;;;-0.83;100.00;95507.94;5061770;28;20057;-74
2021/12/18 07:39:56;;;;;;;11.88;6.63;;;;;;;-1.02;100.00;95507.09;5061947;28;20123;-74
2021/12/18 07:42:23;;;;;;;11.63;6.50;;;;;;;-0.97;100.00;95507.47;5057558;28;20044;-74
2021/12/18 07:49:05;;;;;;;18.25;8.20;;;;;;;-0.93;100.00;95520.78;5043434;27;20741;-74
2021/12/18 07:51:33;;;;;;;16.52;8.77;;;;;;;-0.99;100.00;95517.06;5055342;28;20045;-72
2021/12/18 07:54:00;;;;;;;18.30;10.38;;;;;;;-0.82;100.00;95519.78;5077423;28;20090;-73
2021/12/18 07:56:27;;;;;;;18.50;10.00;;;;;;;-0.77;100.00;95513.28;5081619;28;20520;-73
2021/12/18 07:58:54;;;;;;;22.25;11.77;;;;;;;-0.55;100.00;95533.50;5077878;27;20061;-72
2021/12/18 08:01:21;;;;;;;29.77;12.93;;;;;;;-0.33;100.00;95543.31;5078249;28;20049;-72
2021/12/18 08:03:48;;;;;;;23.15;11.55;;;;;;;-0.29;100.00;95536.13;5087923;27;20045;-73
2021/12/18 08:06:16;;;;;;;34.20;16.13;;;;;;;-0.08;100.00;95561.47;5078296;27;20144;-72
2021/12/18 08:08:43;;;;;;;31.00;15.50;;;;;;;-0.09;100.00;95549.59;5096488;27;20822;-72
2021/12/18 08:11:10;;;;;;;25.30;12.38;;;;;;;0.08;100.00;95560.81;5065764;27;20450;-70
2021/12/18 08:13:37;;;;;;;25.92;13.05;;;;;;;0.07;100.00;95561.75;5053584;28;20477;-70
2021/12/18 08:16:04;;;;;;;27.13;12.70;;;;;;;0.19;100.00;95563.13;5061149;27;20137;-70
2021/12/18 08:18:31;;;;;;;23.33;10.40;;;;;;;0.16;100.00;95548.88;5060569;27;20044;-71
2021/12/18 08:20:58;;;;;;;29.05;10.43;;;;;;;0.31;100.00;95541.44;5070737;27;20053;-71
2021/12/18 08:23:25;;;;;;;16.77;8.00;;;;;;;0.61;100.00;95551.41;5064506;28;20052;-71
2021/12/18 08:25:52;;;;;;;13.82;7.18;;;;;;;0.70;100.00;95550.47;5052196;27;20059;-75
2021/12/18 08:28:19;;;;;;;18.23;8.80;;;;;;;0.86;100.00;95560.81;5065659;28;20057;-75
2021/12/18 08:30:46;;;;;;;14.82;7.45;;;;;;;0.94;100.00;95558.31;5047775;27;20419;-76
2021/12/18 08:33:13;;;;;;;17.98;8.73;;;;;;;0.88;100.00;95573.50;5060772;27;20128;-75
2021/12/18 08:35:40;;;;;;;14.23;7.82;;;;;;;0.80;100.00;95556.31;5054002;27;20099;-75
2021/12/18 08:38:07;;;;;;;36.55;14.85;;;;;;;1.18;100.00;95567.06;5059354;28;20484;-76
2021/12/18 08:40:35;;;;;;;16.95;8.18;;;;;;;1.32;100.00;95561.34;5063670;27;20046;-76
2021/12/18 08:43:02;;;;;;;19.75;8.23;;;;;;;1.55;100.00;95576.19;5051358;27;20072;-72
2021/12/18 08:45:30;;;;;;;15.00;6.10;;;;;;;1.55;100.00;95560.78;5067454;28;20910;-73
2021/12/18 08:47:57;;;;;;;17.27;9.25;;;;;;;1.60;100.00;95561.09;5051846;27;20946;-73
2021/12/18 08:50:25;;;;;;;13.88;7.18;;;;;;;1.69;100.00;95562.75;5060559;27;20049;-78
2021/12/18 08:52:52;;;;;;;16.38;8.55;;;;;;;1.84;100.00;95564.72;5055502;28;21062;-77
2021/12/18 08:55:20;;;;;;;22.38;8.10;;;;;;;1.79;100.00;95528.41;5041795;28;20508;-78
2021/12/18 08:57:48;;;;;;;17.95;9.18;;;;;;;2.09;100.00;95553.47;5060002;28;20028;-77
2021/12/18 09:00:19;;;;;;;17.63;8.38;;;;;;;2.25;100.00;95542.41;5058142;27;20052;-75
2021/12/18 09:02:48;;;;;;;31.15;9.75;;;;;;;2.36;100.00;95543.84;5060807;28;20087;-78
2021/12/18 09:05:16;;;;;;;14.02;7.72;;;;;;;2.48;100.00;95563.13;5045220;28;20046;-79
2021/12/18 09:07:43;;;;;;;14.20;7.20;;;;;;;2.58;100.00;95536.44;5034945;28;20042;-79
2021/12/18 09:10:11;;;;;;;14.65;7.07;;;;;;;2.79;98.72;95554.72;5054102;28;20125;-77
2021/12/18 09:12:38;;;;;;;11.25;6.57;;;;;;;2.84;98.70;95549.84;5035778;28;20458;-80
2021/12/18 09:15:06;;;;;;;7.55;4.63;;;;;;;2.83;97.70;95550.84;5032857;28;20070;-77
2021/12/18 09:17:33;;;;;;;8.40;5.43;;;;;;;2.94;94.94;95547.09;5035161;28;20054;-76
2021/12/18 09:20:00;;;;;;;8.18;4.93;;;;;;;3.20;92.81;95557.13;5055848;28;20092;-76
2021/12/18 09:22:27;;;;;;;9.82;5.40;;;;;;;3.45;93.62;95549.31;5053131;28;20424;-74
2021/12/18 09:24:54;;;;;;;10.27;5.25;;;;;;;3.48;90.40;95554.13;5060077;28;20049;-76
2021/12/18 09:27:22;;;;;;;13.93;5.22;;;;;;;3.38;90.21;95538.09;5066915;28;20052;-76
2021/12/18 09:29:49;;;;;;;8.75;4.50;;;;;;;3.57;89.57;95545.41;5067392;28;20430;-75
2021/12/18 09:32:16;;;;;;;5.20;2.22;;;;;;;3.60;88.17;95557.13;5054838;28;20503;-75
2021/12/18 09:34:43;;;;;;;15.93;8.60;;;;;;;3.72;89.12;95552.41;5055401;28;20053;-75
2021/12/18 09:37:10;;;;;;;6.70;4.13;;;;;;;3.67;86.92;95555.47;5081989;28;20507;-75
2021/12/18 09:39:37;;;;;;;9.52;4.85;;;;;;;3.67;87.63;95546.94;5066716;28;20043;-75
2021/12/18 09:42:04;;;;;;;17.40;9.32;;;;;;;3.66;89.01;95550.50;5063111;28;20040;-75
2021/12/18 09:44:34;;;;;;;15.05;9.90;;;;;;;3.54;91.86;95540.56;5063173;28;20039;-74
2021/12/18 09:47:03;;;;;;;11.70;7.15;;;;;;;3.59;92.28;95535.72;5069671;28;20750;-73
2021/12/18 09:49:30;;;;;;;11.68;7.03;;;;;;;3.34;95.17;95526.53;5045535;28;20046;-75
2021/12/18 09:51:58;;;;;;;8.10;4.82;;;;;;;3.30;95.90;95540.72;5059671;28;20854;-74
2021/12/18 09:54:25;;;;;;;12.60;6.28;;;;;;;3.02;95.02;95554.00;5058149;28;20452;-75
2021/12/18 09:56:52;;;;;;;4.15;2.55;;;;;;;2.65;94.46;95547.66;5057657;28;20068;-76
2021/12/18 09:59:19;;;;;;;8.57;3.40;;;;;;;2.51;97.33;95545.75;5045364;28;20042;-77
2021/12/18 10:01:47;;;;;;;6.05;3.33;;;;;;;2.27;100.00;95549.97;5057050;28;20034;-79
2021/12/18 10:04:34;;;;;;;5.10;3.08;;;;;;;2.25;100.00;95557.00;5040276;28;20046;-75
2021/12/18 10:07:23;;;;;;;5.93;3.15;;;;;;;2.30;100.00;95539.34;5043232;28;20072;-77
2021/12/18 10:09:56;;;;;;;5.43;3.65;;;;;;;2.71;100.00;95543.63;5038631;28;20137;-77
2021/12/18 10:12:29;;;;;;;5.47;3.25;;;;;;;3.03;100.00;95540.16;5046028;28;20065;-78
2021/12/18 10:15:02;;;;;;;6.00;2.92;;;;;;;2.98;100.00;95538.06;5053195;28;20046;-79
2021/12/18 10:17:35;;;;;;;4.05;2.42;;;;;;;3.50;100.00;95529.00;5046600;28;20050;-81
2021/12/18 10:20:11;;;;;;;7.40;3.83;;;;;;;4.15;98.87;95535.50;5056785;28;20036;-81
2021/12/18 10:22:45;;;;;;;5.43;3.30;;;;;;;4.67;91.91;95528.75;5053518;28;20045;-80
2021/12/18 10:25:15;;;;;;;20.17;10.18;;;;;;;4.92;90.11;95531.91;5067062;28;20035;-82
2021/12/18 10:27:44;;;;;;;16.40;7.78;;;;;;;5.27;87.57;95526.19;5051218;28;20048;-82
2021/12/18 10:30:20;;;;;;;7.88;4.60;;;;;;;5.30;86.06;95515.50;5039493;28;20533;-83
2021/12/18 10:33:01;;;;;;;6.50;3.45;;;;;;;5.77;85.41;95521.97;5053079;28;20070;-82
2021/12/18 10:35:44;;;;;;;10.63;4.28;;;;;;;6.55;82.00;95532.41;5106115;27;20038;-79
2021/12/18 10:38:49;;;;;;;8.18;5.35;;;;;;;7.07;77.53;95533.72;5103152;27;20051;-79
2021/12/18 10:41:34;;;;;;;6.05;3.22;;;;;;;7.14;75.38;95530.38;5058912;28;20042;-81
2021/12/18 10:44:07;;;;;;;6.80;3.17;;;;;;;7.24;74.77;95534.22;5055790;28;20039;-82
2021/12/18 10:46:39;;;;;;;3.20;2.13;;;;;;;6.86;75.89;95518.25;5056870;28;20506;-82
2021/12/18 10:49:17;;;;;;;7.13;4.13;;;;;;;6.55;74.21;95532.41;5053369;28;20033;-81
2021/12/18 10:51:48;;;;;;;6.30;2.63;;;;;;;6.38;72.43;95531.09;5054483;28;20038;-83
2021/12/18 10:54:22;;;;;;;2.42;1.73;;;;;;;5.96;73.76;95512.00;5072279;28;20518;-82
2021/12/18 10:56:51;;;;;;;3.90;1.83;;;;;;;5.68;72.39;95510.13;5075197;28;20037;-82
2021/12/18 10:59:36;;;;;;;3.20;1.88;;;;;;;6.11;71.49;95499.84;5064834;28;20035;-82
2021/12/18 11:02:05;;;;;;;7.88;3.08;;;;;;;6.85;69.59;95516.69;5039405;28;20121;-81
2021/12/18 11:04:40;;;;;;;3.97;1.60;;;;;;;7.42;63.05;95507.00;5049427;28;20039;-79
2021/12/18 11:07:22;;;;;;;4.85;1.70;;;;;;;7.34;62.87;95510.53;5046148;28;20052;-77
2021/12/18 11:10:11;;;;;;;6.00;2.45;;;;;;;7.13;62.10;95521.00;5069305;28;20113;-81
2021/12/18 11:15:21;;;;;;;2.58;1.50;;;;;;;7.59;62.53;95510.03;5034183;28;20585;-79
2021/12/18 11:17:49;;;;;;;3.00;1.60;;;;;;;7.44;62.20;95505.78;5047517;27;20042;-81
2021/12/18 11:20:18;;;;;;;5.53;1.65;;;;;;;7.84;60.97;95516.25;5078833;28;20041;-81
2021/12/18 11:22:48;;;;;;;5.50;3.00;;;;;;;8.28;60.51;95515.91;5051279;28;20521;-81
2021/12/18 11:25:15;;;;;;;6.03;3.40;;;;;;;8.26;57.15;95507.53;5086132;28;20040;-81
2021/12/18 11:27:43;;;;;;;6.65;3.05;;;;;;;8.27;59.66;95509.16;5041583;28;20053;-80
2021/12/18 11:30:13;;;;;;;5.50;2.35;;;;;;;8.12;59.03;95506.72;5049675;28;20037;-75
2021/12/18 11:32:42;;;;;;;3.42;1.83;;;;;;;7.78;61.58;95506.69;5040850;27;20825;-81
2021/12/18 11:35:13;;;;;;;2.53;1.90;;;;;;;7.92;58.90;95517.06;5038858;28;20095;-83
2021/12/18 11:38:03;;;;;;;3.58;2.42;;;;;;;7.45;63.78;95507.41;5070276;27;20056;-82
2021/12/18 11:40:34;;;;;;;2.92;1.80;;;;;;;7.46;60.36;95503.81;5057994;28;20033;-77
2021/12/18 11:43:06;;;;;;;3.05;1.90;;;;;;;7.34;62.48;95502.75;5049104;28;20514;-77
2021/12/18 11:45:36;;;;;;;4.88;2.00;;;;;;;7.12;62.95;95506.47;5052893;28;20523;-78
2021/12/18 11:48:04;;;;;;;2.78;1.95;;;;;;;6.94;61.85;95510.34;5055643;27;21820;-77
2021/12/18 11:50:35;;;;;;;5.78;3.95;;;;;;;6.66;60.71;95502.59;5051306;28;20060;-77
2021/12/18 11:53:12;;;;;;;7.20;4.75;;;;;;;6.38;61.45;95510.41;5046616;28;20536;-76
2021/12/18 11:55:51;;;;;;;8.50;2.47;;;;;;;5.80;63.81;95508.69;5063071;28;20040;-76
2021/12/18 11:58:34;;;;;;;22.13;9.07;;;;;;;5.44;67.30;95522.41;5062963;27;20680;-79
2021/12/18 12:01:14;;;;;;;13.73;7.80;;;;;;;5.19;68.07;95526.28;5052915;28;20049;-78
2021/12/18 12:03:55;;;;;;;7.15;4.25;;;;;;;4.72;73.56;95536.78;5069453;27;20512;-79
2021/12/18 12:06:34;;;;;;;9.00;4.35;;;;;;;3.90;80.27;95524.56;5076359;28;20038;-79
2021/12/18 12:09:32;;;;;;;4.13;2.15;;;;;;;3.76;82.97;95531.28;5116803;27;20053;-78
2021/12/18 12:12:04;;;;;;;9.27;3.72;;;;;;;3.66;84.59;95525.53;5044954;28;20403;-77
2021/12/18 12:14:42;;;;;;;3.78;2.22;;;;;;;3.51;85.69;95517.75;5048285;27;20526;-74
2021/12/18 12:17:16;;;;;;;10.35;3.97;;;;;;;3.19;90.78;95523.88;5059217;28;20092;-78
2021/12/18 12:19:49;;;;;;;7.82;4.57;;;;;;;2.79;91.31;95513.56;5075183;28;20032;-78
2021/12/18 12:22:41;;;;;;;31.92;15.98;;;;;;;2.55;93.67;95518.75;5060711;28;20049;-78
2021/12/18 12:25:12;;;;;;;13.60;7.30;;;;;;;2.85;95.72;95518.03;5021790;28;20533;-77
2021/12/18 12:27:59;;;;;;;16.83;10.63;;;;;;;3.25;94.16;95503.38;5040005;28;20096;-78
2021/12/18 12:30:30;;;;;;;15.43;6.68;;;;;;;3.61;87.20;95512.38;5058510;28;20075;-78
2021/12/18 12:33:01;;;;;;;14.82;6.07;;;;;;;4.12;82.59;95514.44;5035989;28;20053;-78
2021/12/18 12:35:57;;;;;;;13.02;8.23;;;;;;;4.44;79.56;95517.72;5049731;28;20048;-79
2021/12/18 12:38:27;;;;;;;20.10;8.68;;;;;;;4.51;78.60;95509.09;5040318;28;20495;-77